sensor_id;sensor_type;location;lat;lon;timestamp;P1;durP1;ratioP1;P2;durP2;ratioP2
215;SDS011;64590;48.81286795;9.14184224;2023-05-16T00:00:06;22.13;;;14.60;;
215;SDS011;64590;48.81286795;9.14184224;2023-05-16T00:02:36;22.50;;;15.17;;
215;SDS011;64590;48.81286795;9.14184224;2023-05-16T00:05:05;24.80;;;15.53;;
215;SDS011;64590;48.81286795;9.14184224;2023-05-16T00:07:40;25.03;;;16.50;;
215;SDS011;64590;48.81286795;9.14184224;2023-05-16T00:10:10;23.87;;;16.30;;
215;SDS011;64590;48.81286795;9.14184224;2023-05-16T00:12:41;27.23;;;17.37;;
215;SDS011;64590;48.81286795;9.14184224;2023-05-16T00:15:10;23.50;;;16.43;;
215;SDS011;64590;48.81286795;9.14184224;2023-05-16T00:17:40;30.43;;;18.27;;
215;SDS011;64590;48.81286795;9.14184224;2023-05-16T00:20:11;28.87;;;18.60;;
215;SDS011;64590;48.81286795;9.14184224;2023-05-16T00:22:41;26.93;;;18.47;;
215;SDS011;64590;48.81286795;9.14184224;2023-05-16T00:25:10;29.53;;;20.20;;
215;SDS011;64590;48.81286795;9.14184224;2023-05-16T00:27:41;33.00;;;21.30;;
215;SDS011;64590;48.81286795;9.14184224;2023-05-16T00:30:10;33.87;;;21.83;;
215;SDS011;64590;48.81286795;9.14184224;2023-05-16T00:32:39;34.63;;;22.00;;
215;SDS011;64590;48.81286795;9.14184224;2023-05-16T00:35:08;37.00;;;21.80;;
215;SDS011;64590;48.81286795;9.14184224;2023-05-16T00:37:36;33.50;;;21.43;;
215;SDS011;64590;48.81286795;9.14184224;2023-05-16T00:40:07;32.97;;;22.67;;
215;SDS011;64590;48.81286795;9.14184224;2023-05-16T00:42:36;37.27;;;23.40;;
215;SDS011;64590;48.81286795;9.14184224;2023-05-16T00:45:08;37.93;;;23.70;;
215;SDS011;64590;48.81286795;9.14184224;2023-05-16T00:47:37;34.37;;;23.10;;
215;SDS011;64590;48.81286795;9.14184224;2023-05-16T00:50:06;38.00;;;24.73;;
215;SDS011;64590;48.81286795;9.14184224;2023-05-16T00:52:35;41.00;;;24.40;;
215;SDS011;64590;48.81286795;9.14184224;2023-05-16T00:55:04;37.53;;;24.30;;
215;SDS011;64590;48.81286795;9.14184224;2023-05-16T00:57:35;41.90;;;24.37;;
215;SDS011;64590;48.81286795;9.14184224;2023-05-16T01:00:04;43.57;;;26.30;;
215;SDS011;64590;48.81286795;9.14184224;2023-05-16T01:02:38;36.37;;;24.47;;
215;SDS011;64590;48.81286795;9.14184224;2023-05-16T01:05:06;39.60;;;26.10;;
215;SDS011;64590;48.81286795;9.14184224;2023-05-16T01:07:38;45.80;;;26.60;;
215;SDS011;64590;48.81286795;9.14184224;2023-05-16T01:10:07;40.03;;;25.60;;
215;SDS011;64590;48.81286795;9.14184224;2023-05-16T01:12:36;41.30;;;25.90;;
215;SDS011;64590;48.81286795;9.14184224;2023-05-16T01:15:14;44.67;;;26.10;;
215;SDS011;64590;48.81286795;9.14184224;2023-05-16T01:17:52;39.77;;;26.23;;
215;SDS011;64590;48.81286795;9.14184224;2023-05-16T01:20:29;43.57;;;26.40;;
215;SDS011;64590;48.81286795;9.14184224;2023-05-16T01:23:06;45.03;;;26.67;;
215;SDS011;64590;48.81286795;9.14184224;2023-05-16T01:25:50;42.93;;;26.63;;
215;SDS011;64590;48.81286795;9.14184224;2023-05-16T01:28:27;40.97;;;26.80;;
215;SDS011;64590;48.81286795;9.14184224;2023-05-16T01:30:58;45.80;;;26.93;;
215;SDS011;64590;48.81286795;9.14184224;2023-05-16T01:33:27;41.30;;;26.73;;
215;SDS011;64590;48.81286795;9.14184224;2023-05-16T01:35:57;43.33;;;27.43;;
215;SDS011;64590;48.81286795;9.14184224;2023-05-16T01:38:32;46.53;;;27.60;;
215;SDS011;64590;48.81286795;9.14184224;2023-05-16T01:41:06;49.43;;;28.33;;
215;SDS011;64590;48.81286795;9.14184224;2023-05-16T01:43:43;47.53;;;28.87;;
215;SDS011;64590;48.81286795;9.14184224;2023-05-16T01:46:15;44.97;;;28.57;;
215;SDS011;64590;48.81286795;9.14184224;2023-05-16T01:48:52;47.10;;;28.90;;
215;SDS011;64590;48.81286795;9.14184224;2023-05-16T01:51:26;47.10;;;29.40;;
215;SDS011;64590;48.81286795;9.14184224;2023-05-16T01:53:57;48.70;;;30.00;;
215;SDS011;64590;48.81286795;9.14184224;2023-05-16T01:56:32;51.10;;;29.67;;
215;SDS011;64590;48.81286795;9.14184224;2023-05-16T01:59:06;55.90;;;28.87;;
215;SDS011;64590;48.81286795;9.14184224;2023-05-16T02:01:37;48.37;;;29.60;;
215;SDS011;64590;48.81286795;9.14184224;2023-05-16T02:04:06;50.20;;;29.93;;
215;SDS011;64590;48.81286795;9.14184224;2023-05-16T02:06:34;51.37;;;30.53;;
215;SDS011;64590;48.81286795;9.14184224;2023-05-16T02:09:03;53.30;;;31.60;;
215;SDS011;64590;48.81286795;9.14184224;2023-05-16T02:11:31;56.40;;;32.33;;
215;SDS011;64590;48.81286795;9.14184224;2023-05-16T02:13:59;58.47;;;32.50;;
215;SDS011;64590;48.81286795;9.14184224;2023-05-16T02:16:31;57.57;;;32.53;;
215;SDS011;64590;48.81286795;9.14184224;2023-05-16T02:18:59;60.70;;;31.70;;
215;SDS011;64590;48.81286795;9.14184224;2023-05-16T02:21:28;56.20;;;31.20;;
215;SDS011;64590;48.81286795;9.14184224;2023-05-16T02:23:59;57.13;;;32.83;;
215;SDS011;64590;48.81286795;9.14184224;2023-05-16T02:26:27;53.40;;;32.30;;
215;SDS011;64590;48.81286795;9.14184224;2023-05-16T02:28:56;59.47;;;33.13;;
215;SDS011;64590;48.81286795;9.14184224;2023-05-16T02:31:25;52.90;;;32.00;;
215;SDS011;64590;48.81286795;9.14184224;2023-05-16T02:33:56;60.77;;;34.30;;
215;SDS011;64590;48.81286795;9.14184224;2023-05-16T02:36:27;56.50;;;31.97;;
215;SDS011;64590;48.81286795;9.14184224;2023-05-16T02:38:56;63.13;;;34.00;;
215;SDS011;64590;48.81286795;9.14184224;2023-05-16T02:41:24;60.90;;;34.47;;
215;SDS011;64590;48.81286795;9.14184224;2023-05-16T02:43:53;58.57;;;34.03;;
215;SDS011;64590;48.81286795;9.14184224;2023-05-16T02:46:23;57.23;;;32.03;;
215;SDS011;64590;48.81286795;9.14184224;2023-05-16T02:48:53;59.43;;;32.70;;
215;SDS011;64590;48.81286795;9.14184224;2023-05-16T02:51:27;60.57;;;33.53;;
215;SDS011;64590;48.81286795;9.14184224;2023-05-16T02:53:56;58.37;;;33.17;;
215;SDS011;64590;48.81286795;9.14184224;2023-05-16T02:56:25;62.53;;;34.27;;
215;SDS011;64590;48.81286795;9.14184224;2023-05-16T02:58:54;61.47;;;34.00;;
215;SDS011;64590;48.81286795;9.14184224;2023-05-16T03:01:22;63.28;;;38.08;;
215;SDS011;64590;48.81286795;9.14184224;2023-05-16T03:03:51;64.20;;;35.93;;
215;SDS011;64590;48.81286795;9.14184224;2023-05-16T03:06:22;67.43;;;36.67;;
215;SDS011;64590;48.81286795;9.14184224;2023-05-16T03:08:50;61.57;;;34.60;;
215;SDS011;64590;48.81286795;9.14184224;2023-05-16T03:11:19;62.17;;;34.50;;
215;SDS011;64590;48.81286795;9.14184224;2023-05-16T03:13:50;68.07;;;35.43;;
215;SDS011;64590;48.81286795;9.14184224;2023-05-16T03:16:18;76.97;;;35.13;;
215;SDS011;64590;48.81286795;9.14184224;2023-05-16T03:18:46;67.00;;;34.47;;
215;SDS011;64590;48.81286795;9.14184224;2023-05-16T03:21:15;67.73;;;35.80;;
215;SDS011;64590;48.81286795;9.14184224;2023-05-16T03:23:46;70.60;;;36.20;;
215;SDS011;64590;48.81286795;9.14184224;2023-05-16T03:26:15;69.93;;;36.23;;
215;SDS011;64590;48.81286795;9.14184224;2023-05-16T03:28:43;71.33;;;36.50;;
215;SDS011;64590;48.81286795;9.14184224;2023-05-16T03:31:11;70.17;;;36.47;;
215;SDS011;64590;48.81286795;9.14184224;2023-05-16T03:33:43;73.80;;;37.80;;
215;SDS011;64590;48.81286795;9.14184224;2023-05-16T03:36:12;76.77;;;37.97;;
215;SDS011;64590;48.81286795;9.14184224;2023-05-16T03:38:40;77.57;;;39.40;;
215;SDS011;64590;48.81286795;9.14184224;2023-05-16T03:41:11;81.80;;;39.37;;
215;SDS011;64590;48.81286795;9.14184224;2023-05-16T03:43:41;81.63;;;40.20;;
215;SDS011;64590;48.81286795;9.14184224;2023-05-16T03:46:09;84.87;;;40.20;;
215;SDS011;64590;48.81286795;9.14184224;2023-05-16T03:48:37;85.73;;;41.00;;
215;SDS011;64590;48.81286795;9.14184224;2023-05-16T03:51:08;88.00;;;41.43;;
215;SDS011;64590;48.81286795;9.14184224;2023-05-16T03:53:37;88.03;;;41.87;;
215;SDS011;64590;48.81286795;9.14184224;2023-05-16T03:56:05;86.30;;;41.23;;
215;SDS011;64590;48.81286795;9.14184224;2023-05-16T03:58:36;88.20;;;40.73;;
215;SDS011;64590;48.81286795;9.14184224;2023-05-16T04:01:05;88.37;;;42.60;;
215;SDS011;64590;48.81286795;9.14184224;2023-05-16T04:03:33;86.13;;;41.17;;
215;SDS011;64590;48.81286795;9.14184224;2023-05-16T04:06:03;89.37;;;41.80;;
215;SDS011;64590;48.81286795;9.14184224;2023-05-16T04:08:32;88.70;;;42.77;;
215;SDS011;64590;48.81286795;9.14184224;2023-05-16T04:11:00;86.80;;;41.63;;
215;SDS011;64590;48.81286795;9.14184224;2023-05-16T04:13:28;84.50;;;40.70;;
215;SDS011;64590;48.81286795;9.14184224;2023-05-16T04:15:59;87.57;;;42.30;;
215;SDS011;64590;48.81286795;9.14184224;2023-05-16T04:18:28;88.10;;;41.77;;
215;SDS011;64590;48.81286795;9.14184224;2023-05-16T04:20:56;94.90;;;41.63;;
215;SDS011;64590;48.81286795;9.14184224;2023-05-16T04:23:25;88.37;;;41.50;;
215;SDS011;64590;48.81286795;9.14184224;2023-05-16T04:25:53;84.60;;;41.47;;
215;SDS011;64590;48.81286795;9.14184224;2023-05-16T04:28:23;84.77;;;41.33;;
215;SDS011;64590;48.81286795;9.14184224;2023-05-16T04:30:52;82.83;;;40.73;;
215;SDS011;64590;48.81286795;9.14184224;2023-05-16T04:33:23;84.10;;;40.60;;
215;SDS011;64590;48.81286795;9.14184224;2023-05-16T04:35:54;89.37;;;41.70;;
215;SDS011;64590;48.81286795;9.14184224;2023-05-16T04:38:23;84.80;;;40.43;;
215;SDS011;64590;48.81286795;9.14184224;2023-05-16T04:40:51;81.83;;;40.03;;
215;SDS011;64590;48.81286795;9.14184224;2023-05-16T04:43:22;89.40;;;42.83;;
215;SDS011;64590;48.81286795;9.14184224;2023-05-16T04:45:51;84.03;;;40.80;;
215;SDS011;64590;48.81286795;9.14184224;2023-05-16T04:48:20;87.50;;;41.17;;
215;SDS011;64590;48.81286795;9.14184224;2023-05-16T04:50:51;90.43;;;43.33;;
215;SDS011;64590;48.81286795;9.14184224;2023-05-16T04:53:19;93.87;;;43.37;;
215;SDS011;64590;48.81286795;9.14184224;2023-05-16T04:55:48;83.37;;;40.77;;
215;SDS011;64590;48.81286795;9.14184224;2023-05-16T04:58:16;94.80;;;43.17;;
215;SDS011;64590;48.81286795;9.14184224;2023-05-16T05:00:44;84.87;;;41.37;;
215;SDS011;64590;48.81286795;9.14184224;2023-05-16T05:03:13;80.60;;;40.83;;
215;SDS011;64590;48.81286795;9.14184224;2023-05-16T05:05:44;82.00;;;40.40;;
215;SDS011;64590;48.81286795;9.14184224;2023-05-16T05:08:13;84.37;;;40.90;;
215;SDS011;64590;48.81286795;9.14184224;2023-05-16T05:10:41;81.80;;;41.10;;
215;SDS011;64590;48.81286795;9.14184224;2023-05-16T05:13:10;83.50;;;40.10;;
215;SDS011;64590;48.81286795;9.14184224;2023-05-16T05:15:38;80.80;;;40.57;;
215;SDS011;64590;48.81286795;9.14184224;2023-05-16T05:18:06;82.70;;;39.93;;
215;SDS011;64590;48.81286795;9.14184224;2023-05-16T05:20:35;81.97;;;41.50;;
215;SDS011;64590;48.81286795;9.14184224;2023-05-16T05:23:09;88.03;;;41.20;;
215;SDS011;64590;48.81286795;9.14184224;2023-05-16T05:25:37;86.60;;;41.77;;
215;SDS011;64590;48.81286795;9.14184224;2023-05-16T05:28:06;82.63;;;40.20;;
215;SDS011;64590;48.81286795;9.14184224;2023-05-16T05:30:35;88.43;;;41.10;;
215;SDS011;64590;48.81286795;9.14184224;2023-05-16T05:33:03;88.77;;;41.37;;
215;SDS011;64590;48.81286795;9.14184224;2023-05-16T05:35:32;88.37;;;41.00;;
215;SDS011;64590;48.81286795;9.14184224;2023-05-16T05:38:00;84.67;;;41.70;;
215;SDS011;64590;48.81286795;9.14184224;2023-05-16T05:40:31;82.53;;;41.60;;
215;SDS011;64590;48.81286795;9.14184224;2023-05-16T05:42:59;83.43;;;41.13;;
215;SDS011;64590;48.81286795;9.14184224;2023-05-16T05:45:28;89.57;;;42.17;;
215;SDS011;64590;48.81286795;9.14184224;2023-05-16T05:47:56;91.17;;;43.20;;
215;SDS011;64590;48.81286795;9.14184224;2023-05-16T05:50:25;85.20;;;41.03;;
215;SDS011;64590;48.81286795;9.14184224;2023-05-16T05:52:53;82.07;;;41.77;;
215;SDS011;64590;48.81286795;9.14184224;2023-05-16T05:55:22;83.80;;;41.00;;
215;SDS011;64590;48.81286795;9.14184224;2023-05-16T05:57:53;80.07;;;40.63;;
215;SDS011;64590;48.81286795;9.14184224;2023-05-16T06:00:22;82.50;;;41.47;;
215;SDS011;64590;48.81286795;9.14184224;2023-05-16T06:02:50;81.37;;;40.33;;
215;SDS011;64590;48.81286795;9.14184224;2023-05-16T06:05:19;84.00;;;38.77;;
215;SDS011;64590;48.81286795;9.14184224;2023-05-16T06:07:47;92.90;;;41.20;;
215;SDS011;64590;48.81286795;9.14184224;2023-05-16T06:10:16;88.37;;;41.40;;
215;SDS011;64590;48.81286795;9.14184224;2023-05-16T06:12:44;77.97;;;39.17;;
215;SDS011;64590;48.81286795;9.14184224;2023-05-16T06:15:15;78.43;;;38.77;;
215;SDS011;64590;48.81286795;9.14184224;2023-05-16T06:17:46;78.40;;;39.20;;
215;SDS011;64590;48.81286795;9.14184224;2023-05-16T06:20:15;74.20;;;38.10;;
215;SDS011;64590;48.81286795;9.14184224;2023-05-16T06:22:45;75.50;;;38.60;;
215;SDS011;64590;48.81286795;9.14184224;2023-05-16T06:25:13;71.60;;;36.90;;
215;SDS011;64590;48.81286795;9.14184224;2023-05-16T06:27:42;83.77;;;38.43;;
215;SDS011;64590;48.81286795;9.14184224;2023-05-16T06:30:10;68.47;;;36.63;;
215;SDS011;64590;48.81286795;9.14184224;2023-05-16T06:32:42;71.23;;;36.80;;
215;SDS011;64590;48.81286795;9.14184224;2023-05-16T06:35:11;67.87;;;36.00;;
215;SDS011;64590;48.81286795;9.14184224;2023-05-16T06:37:39;73.87;;;37.03;;
215;SDS011;64590;48.81286795;9.14184224;2023-05-16T06:40:08;69.93;;;37.93;;
215;SDS011;64590;48.81286795;9.14184224;2023-05-16T06:42:36;69.83;;;34.67;;
215;SDS011;64590;48.81286795;9.14184224;2023-05-16T06:45:06;64.33;;;35.10;;
215;SDS011;64590;48.81286795;9.14184224;2023-05-16T06:47:35;68.00;;;35.33;;
215;SDS011;64590;48.81286795;9.14184224;2023-05-16T06:50:07;62.20;;;35.10;;
215;SDS011;64590;48.81286795;9.14184224;2023-05-16T06:52:36;64.20;;;34.43;;
215;SDS011;64590;48.81286795;9.14184224;2023-05-16T06:55:06;58.57;;;32.40;;
215;SDS011;64590;48.81286795;9.14184224;2023-05-16T06:57:36;59.47;;;33.20;;
215;SDS011;64590;48.81286795;9.14184224;2023-05-16T07:00:05;57.17;;;31.47;;
215;SDS011;64590;48.81286795;9.14184224;2023-05-16T07:02:37;55.33;;;31.40;;
215;SDS011;64590;48.81286795;9.14184224;2023-05-16T07:05:08;47.63;;;28.80;;
215;SDS011;64590;48.81286795;9.14184224;2023-05-16T07:07:37;52.63;;;29.07;;
215;SDS011;64590;48.81286795;9.14184224;2023-05-16T07:10:05;51.10;;;28.77;;
215;SDS011;64590;48.81286795;9.14184224;2023-05-16T07:12:34;41.87;;;26.30;;
215;SDS011;64590;48.81286795;9.14184224;2023-05-16T07:15:04;39.30;;;25.07;;
215;SDS011;64590;48.81286795;9.14184224;2023-05-16T07:17:33;41.27;;;25.30;;
215;SDS011;64590;48.81286795;9.14184224;2023-05-16T07:20:02;37.73;;;22.20;;
215;SDS011;64590;48.81286795;9.14184224;2023-05-16T07:25:05;34.60;;;21.80;;
215;SDS011;64590;48.81286795;9.14184224;2023-05-16T07:27:37;33.70;;;20.47;;
215;SDS011;64590;48.81286795;9.14184224;2023-05-16T07:30:06;34.13;;;19.60;;
215;SDS011;64590;48.81286795;9.14184224;2023-05-16T07:32:36;31.27;;;19.33;;
215;SDS011;64590;48.81286795;9.14184224;2023-05-16T07:35:04;35.00;;;19.07;;
215;SDS011;64590;48.81286795;9.14184224;2023-05-16T07:37:36;31.40;;;18.90;;
215;SDS011;64590;48.81286795;9.14184224;2023-05-16T07:40:07;26.13;;;16.97;;
215;SDS011;64590;48.81286795;9.14184224;2023-05-16T07:42:36;27.90;;;17.93;;
215;SDS011;64590;48.81286795;9.14184224;2023-05-16T07:45:06;26.93;;;16.67;;
